sensor_id;sensor_type;location;lat;lon;timestamp;P1;durP1;ratioP1;P2;durP2;ratioP2
20140;SDS011;10231;47.702;9.826;2023-04-03T00:00:55;4.30;;;4.00;;
20140;SDS011;10231;47.702;9.826;2023-04-03T00:03:21;4.10;;;3.80;;
20140;SDS011;10231;47.702;9.826;2023-04-03T00:05:47;4.23;;;4.03;;
20140;SDS011;10231;47.702;9.826;2023-04-03T00:08:13;3.73;;;3.53;;
20140;SDS011;10231;47.702;9.826;2023-04-03T00:10:39;4.60;;;4.10;;
20140;SDS011;10231;47.702;9.826;2023-04-03T00:13:05;4.60;;;4.30;;
20140;SDS011;10231;47.702;9.826;2023-04-03T00:15:33;5.23;;;4.83;;
20140;SDS011;10231;47.702;9.826;2023-04-03T00:17:59;6.00;;;4.77;;
20140;SDS011;10231;47.702;9.826;2023-04-03T00:20:26;5.90;;;4.90;;
20140;SDS011;10231;47.702;9.826;2023-04-03T00:22:52;5.13;;;4.77;;
20140;SDS011;10231;47.702;9.826;2023-04-03T00:25:18;5.17;;;4.87;;
20140;SDS011;10231;47.702;9.826;2023-04-03T00:27:44;5.30;;;4.90;;
20140;SDS011;10231;47.702;9.826;2023-04-03T00:30:11;5.60;;;5.20;;
20140;SDS011;10231;47.702;9.826;2023-04-03T00:32:39;5.93;;;5.43;;
20140;SDS011;10231;47.702;9.826;2023-04-03T00:35:05;6.20;;;5.80;;
20140;SDS011;10231;47.702;9.826;2023-04-03T00:37:30;5.57;;;5.17;;
20140;SDS011;10231;47.702;9.826;2023-04-03T00:39:56;5.63;;;5.13;;
20140;SDS011;10231;47.702;9.826;2023-04-03T00:42:22;5.80;;;5.30;;
20140;SDS011;10231;47.702;9.826;2023-04-03T00:47:13;6.80;;;6.23;;
20140;SDS011;10231;47.702;9.826;2023-04-03T00:49:42;5.97;;;5.47;;
20140;SDS011;10231;47.702;9.826;2023-04-03T00:52:10;5.53;;;5.10;;
20140;SDS011;10231;47.702;9.826;2023-04-03T00:54:40;6.00;;;5.50;;
20140;SDS011;10231;47.702;9.826;2023-04-03T00:57:07;6.70;;;6.17;;
20140;SDS011;10231;47.702;9.826;2023-04-03T00:59:35;6.70;;;6.10;;
20140;SDS011;10231;47.702;9.826;2023-04-03T01:02:05;6.60;;;6.10;;
20140;SDS011;10231;47.702;9.826;2023-04-03T01:04:35;7.10;;;6.50;;
20140;SDS011;10231;47.702;9.826;2023-04-03T01:07:06;6.23;;;5.73;;
20140;SDS011;10231;47.702;9.826;2023-04-03T01:09:34;7.00;;;6.40;;
20140;SDS011;10231;47.702;9.826;2023-04-03T01:12:16;7.03;;;6.43;;
20140;SDS011;10231;47.702;9.826;2023-04-03T01:14:45;6.03;;;5.50;;
20140;SDS011;10231;47.702;9.826;2023-04-03T01:25:34;6.80;;;6.20;;
20140;SDS011;10231;47.702;9.826;2023-04-03T01:28:06;6.60;;;6.00;;
20140;SDS011;10231;47.702;9.826;2023-04-03T01:30:44;6.07;;;5.57;;
20140;SDS011;10231;47.702;9.826;2023-04-03T01:33:20;7.27;;;6.67;;
20140;SDS011;10231;47.702;9.826;2023-04-03T01:35:45;6.37;;;5.87;;
20140;SDS011;10231;47.702;9.826;2023-04-03T01:38:11;6.30;;;5.80;;
20140;SDS011;10231;47.702;9.826;2023-04-03T01:40:36;7.47;;;6.77;;
20140;SDS011;10231;47.702;9.826;2023-04-03T01:43:02;6.97;;;6.47;;
20140;SDS011;10231;47.702;9.826;2023-04-03T01:45:27;6.97;;;6.33;;
20140;SDS011;10231;47.702;9.826;2023-04-03T01:47:53;7.13;;;6.63;;
20140;SDS011;10231;47.702;9.826;2023-04-03T01:50:19;6.97;;;6.30;;
20140;SDS011;10231;47.702;9.826;2023-04-03T01:52:45;7.37;;;6.67;;
20140;SDS011;10231;47.702;9.826;2023-04-03T01:55:10;7.03;;;6.33;;
20140;SDS011;10231;47.702;9.826;2023-04-03T01:57:36;6.97;;;6.27;;
20140;SDS011;10231;47.702;9.826;2023-04-03T02:00:01;7.40;;;6.80;;
20140;SDS011;10231;47.702;9.826;2023-04-03T02:02:27;7.00;;;6.50;;
20140;SDS011;10231;47.702;9.826;2023-04-03T02:04:53;7.27;;;6.67;;
20140;SDS011;10231;47.702;9.826;2023-04-03T02:07:19;7.30;;;6.60;;
20140;SDS011;10231;47.702;9.826;2023-04-03T02:09:45;7.40;;;6.77;;
20140;SDS011;10231;47.702;9.826;2023-04-03T02:12:11;6.80;;;6.30;;
20140;SDS011;10231;47.702;9.826;2023-04-03T02:14:36;7.57;;;6.87;;
20140;SDS011;10231;47.702;9.826;2023-04-03T02:17:02;8.50;;;7.63;;
20140;SDS011;10231;47.702;9.826;2023-04-03T02:19:30;8.20;;;7.40;;
20140;SDS011;10231;47.702;9.826;2023-04-03T02:21:56;7.83;;;7.20;;
20140;SDS011;10231;47.702;9.826;2023-04-03T02:24:21;7.67;;;7.07;;
20140;SDS011;10231;47.702;9.826;2023-04-03T02:26:47;8.20;;;7.40;;
20140;SDS011;10231;47.702;9.826;2023-04-03T02:29:12;7.30;;;6.60;;
20140;SDS011;10231;47.702;9.826;2023-04-03T02:31:38;8.00;;;7.37;;
20140;SDS011;10231;47.702;9.826;2023-04-03T02:34:04;7.57;;;6.87;;
20140;SDS011;10231;47.702;9.826;2023-04-03T02:36:29;7.67;;;6.97;;
20140;SDS011;10231;47.702;9.826;2023-04-03T02:38:55;8.60;;;7.47;;
20140;SDS011;10231;47.702;9.826;2023-04-03T02:41:20;8.07;;;7.37;;
20140;SDS011;10231;47.702;9.826;2023-04-03T02:43:46;7.50;;;6.83;;
20140;SDS011;10231;47.702;9.826;2023-04-03T02:46:12;8.57;;;7.77;;
20140;SDS011;10231;47.702;9.826;2023-04-03T02:48:39;8.77;;;7.90;;
20140;SDS011;10231;47.702;9.826;2023-04-03T02:51:05;8.90;;;8.10;;
20140;SDS011;10231;47.702;9.826;2023-04-03T02:53:31;8.13;;;7.33;;
20140;SDS011;10231;47.702;9.826;2023-04-03T02:55:56;8.53;;;7.83;;
20140;SDS011;10231;47.702;9.826;2023-04-03T02:58:22;10.67;;;7.80;;
20140;SDS011;10231;47.702;9.826;2023-04-03T03:00:47;9.93;;;7.90;;
20140;SDS011;10231;47.702;9.826;2023-04-03T03:03:13;9.23;;;8.50;;
20140;SDS011;10231;47.702;9.826;2023-04-03T03:05:39;8.30;;;7.60;;
20140;SDS011;10231;47.702;9.826;2023-04-03T03:08:05;7.77;;;7.07;;
20140;SDS011;10231;47.702;9.826;2023-04-03T03:10:30;8.73;;;7.93;;
20140;SDS011;10231;47.702;9.826;2023-04-03T03:12:56;8.73;;;7.93;;
20140;SDS011;10231;47.702;9.826;2023-04-03T03:15:21;8.33;;;7.53;;
20140;SDS011;10231;47.702;9.826;2023-04-03T03:17:47;8.27;;;7.57;;
20140;SDS011;10231;47.702;9.826;2023-04-03T03:20:13;9.00;;;8.10;;
20140;SDS011;10231;47.702;9.826;2023-04-03T03:22:41;8.33;;;7.63;;
20140;SDS011;10231;47.702;9.826;2023-04-03T03:25:07;8.90;;;8.20;;
20140;SDS011;10231;47.702;9.826;2023-04-03T03:27:33;8.40;;;7.70;;
20140;SDS011;10231;47.702;9.826;2023-04-03T03:29:58;8.83;;;7.93;;
20140;SDS011;10231;47.702;9.826;2023-04-03T03:32:24;9.27;;;8.37;;
20140;SDS011;10231;47.702;9.826;2023-04-03T03:34:50;9.13;;;8.03;;
20140;SDS011;10231;47.702;9.826;2023-04-03T03:37:15;9.13;;;8.30;;
20140;SDS011;10231;47.702;9.826;2023-04-03T03:39:41;9.07;;;8.27;;
20140;SDS011;10231;47.702;9.826;2023-04-03T03:42:06;8.63;;;7.77;;
20140;SDS011;10231;47.702;9.826;2023-04-03T03:44:32;8.53;;;7.80;;
20140;SDS011;10231;47.702;9.826;2023-04-03T03:46:58;8.70;;;8.00;;
20140;SDS011;10231;47.702;9.826;2023-04-03T03:49:23;8.37;;;7.57;;
20140;SDS011;10231;47.702;9.826;2023-04-03T03:51:49;8.17;;;7.40;;
20140;SDS011;10231;47.702;9.826;2023-04-03T03:54:15;8.10;;;7.40;;
20140;SDS011;10231;47.702;9.826;2023-04-03T03:56:41;8.70;;;7.90;;
20140;SDS011;10231;47.702;9.826;2023-04-03T03:59:07;8.33;;;7.63;;
20140;SDS011;10231;47.702;9.826;2023-04-03T04:01:32;8.73;;;7.97;;
20140;SDS011;10231;47.702;9.826;2023-04-03T04:03:58;8.70;;;7.90;;
20140;SDS011;10231;47.702;9.826;2023-04-03T04:06:24;8.80;;;8.00;;
20140;SDS011;10231;47.702;9.826;2023-04-03T04:08:49;8.37;;;7.57;;
20140;SDS011;10231;47.702;9.826;2023-04-03T04:11:15;8.73;;;7.93;;
20140;SDS011;10231;47.702;9.826;2023-04-03T04:13:41;8.83;;;8.03;;
20140;SDS011;10231;47.702;9.826;2023-04-03T04:16:06;11.10;;;8.83;;
20140;SDS011;10231;47.702;9.826;2023-04-03T04:18:32;9.37;;;8.50;;
20140;SDS011;10231;47.702;9.826;2023-04-03T04:20:58;9.23;;;8.33;;
20140;SDS011;10231;47.702;9.826;2023-04-03T04:23:24;9.27;;;8.43;;
20140;SDS011;10231;47.702;9.826;2023-04-03T04:25:49;8.80;;;7.90;;
20140;SDS011;10231;47.702;9.826;2023-04-03T04:28:15;8.90;;;8.10;;
20140;SDS011;10231;47.702;9.826;2023-04-03T04:30:41;9.37;;;8.47;;
20140;SDS011;10231;47.702;9.826;2023-04-03T04:33:07;9.50;;;8.57;;
20140;SDS011;10231;47.702;9.826;2023-04-03T04:35:33;9.27;;;8.37;;
20140;SDS011;10231;47.702;9.826;2023-04-03T04:37:59;9.07;;;8.27;;
20140;SDS011;10231;47.702;9.826;2023-04-03T04:40:25;9.40;;;8.00;;
20140;SDS011;10231;47.702;9.826;2023-04-03T04:42:51;8.93;;;8.13;;
20140;SDS011;10231;47.702;9.826;2023-04-03T04:45:17;9.63;;;8.63;;
20140;SDS011;10231;47.702;9.826;2023-04-03T04:47:43;8.77;;;7.97;;
20140;SDS011;10231;47.702;9.826;2023-04-03T04:50:09;8.97;;;8.10;;
20140;SDS011;10231;47.702;9.826;2023-04-03T04:52:35;9.30;;;8.03;;
20140;SDS011;10231;47.702;9.826;2023-04-03T04:55:00;8.30;;;7.50;;
20140;SDS011;10231;47.702;9.826;2023-04-03T04:57:26;8.43;;;7.60;;
20140;SDS011;10231;47.702;9.826;2023-04-03T04:59:52;8.30;;;7.57;;
20140;SDS011;10231;47.702;9.826;2023-04-03T05:02:17;8.07;;;7.37;;
20140;SDS011;10231;47.702;9.826;2023-04-03T05:04:43;7.50;;;6.87;;
20140;SDS011;10231;47.702;9.826;2023-04-03T05:07:08;8.90;;;8.00;;
20140;SDS011;10231;47.702;9.826;2023-04-03T05:09:34;7.00;;;6.37;;
20140;SDS011;10231;47.702;9.826;2023-04-03T05:11:59;8.73;;;7.60;;
20140;SDS011;10231;47.702;9.826;2023-04-03T05:14:25;8.27;;;7.27;;
20140;SDS011;10231;47.702;9.826;2023-04-03T05:16:51;7.60;;;6.90;;
20140;SDS011;10231;47.702;9.826;2023-04-03T05:19:20;7.00;;;6.30;;
20140;SDS011;10231;47.702;9.826;2023-04-03T05:21:46;7.87;;;7.03;;
20140;SDS011;10231;47.702;9.826;2023-04-03T05:24:12;7.33;;;6.73;;
20140;SDS011;10231;47.702;9.826;2023-04-03T05:26:38;7.43;;;6.80;;
20140;SDS011;10231;47.702;9.826;2023-04-03T05:29:03;7.60;;;6.90;;
20140;SDS011;10231;47.702;9.826;2023-04-03T05:31:29;7.43;;;6.67;;
20140;SDS011;10231;47.702;9.826;2023-04-03T05:33:55;6.43;;;5.93;;
20140;SDS011;10231;47.702;9.826;2023-04-03T05:36:21;7.77;;;7.07;;
20140;SDS011;10231;47.702;9.826;2023-04-03T05:38:47;7.67;;;6.97;;
20140;SDS011;10231;47.702;9.826;2023-04-03T05:41:13;7.00;;;6.40;;
20140;SDS011;10231;47.702;9.826;2023-04-03T05:43:39;7.57;;;6.73;;
20140;SDS011;10231;47.702;9.826;2023-04-03T05:46:12;8.97;;;6.97;;
20140;SDS011;10231;47.702;9.826;2023-04-03T05:48:38;7.87;;;7.17;;
20140;SDS011;10231;47.702;9.826;2023-04-03T05:51:05;7.20;;;6.57;;
20140;SDS011;10231;47.702;9.826;2023-04-03T05:53:33;6.90;;;6.30;;
20140;SDS011;10231;47.702;9.826;2023-04-03T05:56:04;7.60;;;6.37;;
20140;SDS011;10231;47.702;9.826;2023-04-03T05:58:29;8.10;;;7.40;;
20140;SDS011;10231;47.702;9.826;2023-04-03T06:00:55;6.87;;;6.27;;
20140;SDS011;10231;47.702;9.826;2023-04-03T06:03:21;7.67;;;7.00;;
20140;SDS011;10231;47.702;9.826;2023-04-03T06:05:47;7.70;;;7.00;;
20140;SDS011;10231;47.702;9.826;2023-04-03T06:08:12;7.67;;;6.97;;
20140;SDS011;10231;47.702;9.826;2023-04-03T06:10:39;8.07;;;7.30;;
20140;SDS011;10231;47.702;9.826;2023-04-03T06:13:05;7.33;;;6.63;;
20140;SDS011;10231;47.702;9.826;2023-04-03T06:15:31;7.53;;;6.90;;
20140;SDS011;10231;47.702;9.826;2023-04-03T06:17:56;7.83;;;7.03;;
20140;SDS011;10231;47.702;9.826;2023-04-03T06:20:22;7.83;;;7.03;;
20140;SDS011;10231;47.702;9.826;2023-04-03T06:22:48;8.07;;;7.17;;
20140;SDS011;10231;47.702;9.826;2023-04-03T06:25:13;7.13;;;6.53;;
20140;SDS011;10231;47.702;9.826;2023-04-03T06:27:39;7.00;;;6.30;;
20140;SDS011;10231;47.702;9.826;2023-04-03T06:30:06;7.53;;;6.90;;
20140;SDS011;10231;47.702;9.826;2023-04-03T06:32:32;8.43;;;7.63;;
20140;SDS011;10231;47.702;9.826;2023-04-03T06:34:57;7.57;;;6.87;;
20140;SDS011;10231;47.702;9.826;2023-04-03T06:37:23;8.03;;;6.90;;
20140;SDS011;10231;47.702;9.826;2023-04-03T06:39:53;8.53;;;7.73;;
20140;SDS011;10231;47.702;9.826;2023-04-03T06:42:19;7.43;;;6.83;;
20140;SDS011;10231;47.702;9.826;2023-04-03T06:44:45;8.20;;;7.43;;
20140;SDS011;10231;47.702;9.826;2023-04-03T06:47:11;9.07;;;7.80;;
20140;SDS011;10231;47.702;9.826;2023-04-03T06:49:39;7.27;;;6.67;;
20140;SDS011;10231;47.702;9.826;2023-04-03T06:52:05;7.27;;;6.57;;
20140;SDS011;10231;47.702;9.826;2023-04-03T06:54:31;8.93;;;7.10;;
20140;SDS011;10231;47.702;9.826;2023-04-03T06:56:57;7.73;;;6.40;;
20140;SDS011;10231;47.702;9.826;2023-04-03T06:59:22;7.33;;;6.63;;
20140;SDS011;10231;47.702;9.826;2023-04-03T07:01:48;7.00;;;6.40;;
20140;SDS011;10231;47.702;9.826;2023-04-03T07:04:14;8.27;;;7.50;;
20140;SDS011;10231;47.702;9.826;2023-04-03T07:06:40;6.60;;;6.00;;
20140;SDS011;10231;47.702;9.826;2023-04-03T07:09:07;7.80;;;7.10;;
20140;SDS011;10231;47.702;9.826;2023-04-03T07:11:33;7.43;;;6.67;;
20140;SDS011;10231;47.702;9.826;2023-04-03T07:13:59;7.97;;;7.27;;
20140;SDS011;10231;47.702;9.826;2023-04-03T07:16:25;8.13;;;7.43;;
20140;SDS011;10231;47.702;9.826;2023-04-03T07:18:50;8.00;;;7.37;;
20140;SDS011;10231;47.702;9.826;2023-04-03T07:21:16;7.57;;;6.90;;
20140;SDS011;10231;47.702;9.826;2023-04-03T07:23:42;7.10;;;6.40;;
20140;SDS011;10231;47.702;9.826;2023-04-03T07:26:07;7.07;;;6.30;;
20140;SDS011;10231;47.702;9.826;2023-04-03T07:28:34;6.67;;;6.07;;
20140;SDS011;10231;47.702;9.826;2023-04-03T07:31:01;7.50;;;6.37;;
20140;SDS011;10231;47.702;9.826;2023-04-03T07:33:33;7.00;;;6.40;;
20140;SDS011;10231;47.702;9.826;2023-04-03T07:36:00;6.20;;;5.70;;
20140;SDS011;10231;47.702;9.826;2023-04-03T07:38:27;7.00;;;6.30;;
20140;SDS011;10231;47.702;9.826;2023-04-03T07:40:53;6.90;;;6.20;;
20140;SDS011;10231;47.702;9.826;2023-04-03T07:43:19;6.77;;;6.17;;
20140;SDS011;10231;47.702;9.826;2023-04-03T07:45:46;7.10;;;6.40;;
20140;SDS011;10231;47.702;9.826;2023-04-03T07:48:14;7.63;;;6.93;;
20140;SDS011;10231;47.702;9.826;2023-04-03T07:50:40;6.60;;;6.10;;
20140;SDS011;10231;47.702;9.826;2023-04-03T07:53:06;7.33;;;6.73;;
20140;SDS011;10231;47.702;9.826;2023-04-03T07:55:32;6.90;;;6.10;;
20140;SDS011;10231;47.702;9.826;2023-04-03T07:57:58;6.73;;;6.13;;
20140;SDS011;10231;47.702;9.826;2023-04-03T08:00:24;6.80;;;6.20;;
20140;SDS011;10231;47.702;9.826;2023-04-03T08:02:50;6.33;;;5.80;;
20140;SDS011;10231;47.702;9.826;2023-04-03T08:05:19;9.57;;;6.23;;
20140;SDS011;10231;47.702;9.826;2023-04-03T08:07:46;6.73;;;6.00;;
20140;SDS011;10231;47.702;9.826;2023-04-03T08:10:12;7.33;;;6.63;;
20140;SDS011;10231;47.702;9.826;2023-04-03T08:12:38;7.63;;;6.83;;
20140;SDS011;10231;47.702;9.826;2023-04-03T08:15:04;7.50;;;6.80;;
20140;SDS011;10231;47.702;9.826;2023-04-03T08:17:30;6.97;;;6.30;;
20140;SDS011;10231;47.702;9.826;2023-04-03T08:19:55;7.20;;;6.50;;
20140;SDS011;10231;47.702;9.826;2023-04-03T08:22:21;6.40;;;5.80;;
20140;SDS011;10231;47.702;9.826;2023-04-03T08:24:46;7.37;;;6.70;;
20140;SDS011;10231;47.702;9.826;2023-04-03T08:27:12;7.03;;;6.37;;
20140;SDS011;10231;47.702;9.826;2023-04-03T08:29:38;6.80;;;6.20;;
20140;SDS011;10231;47.702;9.826;2023-04-03T08:32:04;6.63;;;5.93;;
20140;SDS011;10231;47.702;9.826;2023-04-03T08:34:30;6.33;;;5.70;;
20140;SDS011;10231;47.702;9.826;2023-04-03T08:36:59;6.37;;;5.77;;
20140;SDS011;10231;47.702;9.826;2023-04-03T08:39:25;5.87;;;5.37;;
20140;SDS011;10231;47.702;9.826;2023-04-03T08:41:51;7.00;;;6.07;;
20140;SDS011;10231;47.702;9.826;2023-04-03T08:44:20;6.30;;;5.80;;
20140;SDS011;10231;47.702;9.826;2023-04-03T08:49:45;6.33;;;5.73;;
20140;SDS011;10231;47.702;9.826;2023-04-03T08:52:58;6.90;;;5.83;;
20140;SDS011;10231;47.702;9.826;2023-04-03T08:57:51;6.47;;;5.47;;
20140;SDS011;10231;47.702;9.826;2023-04-03T09:00:32;6.07;;;5.53;;
20140;SDS011;10231;47.702;9.826;2023-04-03T09:03:14;6.10;;;5.47;;
20140;SDS011;10231;47.702;9.826;2023-04-03T09:05:44;6.73;;;6.13;;
20140;SDS011;10231;47.702;9.826;2023-04-03T09:11:17;6.87;;;6.20;;
20140;SDS011;10231;47.702;9.826;2023-04-03T09:14:04;6.30;;;5.77;;
20140;SDS011;10231;47.702;9.826;2023-04-03T09:16:55;6.80;;;6.03;;
20140;SDS011;10231;47.702;9.826;2023-04-03T09:19:35;6.50;;;5.90;;
20140;SDS011;10231;47.702;9.826;2023-04-03T09:22:27;5.43;;;4.93;;
20140;SDS011;10231;47.702;9.826;2023-04-03T09:27:26;5.83;;;5.33;;
20140;SDS011;10231;47.702;9.826;2023-04-03T09:29:53;5.97;;;5.37;;
20140;SDS011;10231;47.702;9.826;2023-04-03T09:32:29;6.23;;;5.63;;
20140;SDS011;10231;47.702;9.826;2023-04-03T09:34:57;5.90;;;5.43;;
20140;SDS011;10231;47.702;9.826;2023-04-03T09:37:42;7.13;;;5.43;;
20140;SDS011;10231;47.702;9.826;2023-04-03T09:43:28;6.07;;;5.47;;
20140;SDS011;10231;47.702;9.826;2023-04-03T09:45:57;5.80;;;5.27;;
20140;SDS011;10231;47.702;9.826;2023-04-03T09:49:02;5.50;;;5.00;;
20140;SDS011;10231;47.702;9.826;2023-04-03T09:51:29;5.70;;;5.20;;
20140;SDS011;10231;47.702;9.826;2023-04-03T09:53:56;5.10;;;4.70;;
20140;SDS011;10231;47.702;9.826;2023-04-03T09:56:24;5.93;;;5.10;;
20140;SDS011;10231;47.702;9.826;2023-04-03T10:01:33;5.00;;;4.60;;
20140;SDS011;10231;47.702;9.826;2023-04-03T10:04:10;4.57;;;4.17;;
20140;SDS011;10231;47.702;9.826;2023-04-03T10:06:44;5.17;;;4.77;;
20140;SDS011;10231;47.702;9.826;2023-04-03T10:09:31;4.93;;;4.50;;
20140;SDS011;10231;47.702;9.826;2023-04-03T10:12:08;4.30;;;4.03;;
20140;SDS011;10231;47.702;9.826;2023-04-03T10:14:47;4.70;;;4.30;;
20140;SDS011;10231;47.702;9.826;2023-04-03T10:34:24;3.83;;;3.53;;
20140;SDS011;10231;47.702;9.826;2023-04-03T10:37:12;4.27;;;3.97;;
20140;SDS011;10231;47.702;9.826;2023-04-03T10:39:51;3.77;;;3.47;;
20140;SDS011;10231;47.702;9.826;2023-04-03T10:47:30;3.97;;;3.63;;
20140;SDS011;10231;47.702;9.826;2023-04-03T10:56:17;3.30;;;3.10;;
20140;SDS011;10231;47.702;9.826;2023-04-03T10:58:54;3.90;;;3.47;;
20140;SDS011;10231;47.702;9.826;2023-04-03T11:01:27;3.33;;;3.03;;
20140;SDS011;10231;47.702;9.826;2023-04-03T11:03:58;3.67;;;3.00;;
20140;SDS011;10231;47.702;9.826;2023-04-03T11:06:26;3.50;;;3.30;;
20140;SDS011;10231;47.702;9.826;2023-04-03T11:09:03;3.00;;;2.80;;
20140;SDS011;10231;47.702;9.826;2023-04-03T11:11:39;3.07;;;2.87;;
20140;SDS011;10231;47.702;9.826;2023-04-03T11:14:11;2.60;;;2.50;;
20140;SDS011;10231;47.702;9.826;2023-04-03T11:16:47;3.63;;;2.90;;
20140;SDS011;10231;47.702;9.826;2023-04-03T11:19:17;3.00;;;2.43;;
20140;SDS011;10231;47.702;9.826;2023-04-03T11:21:54;2.90;;;2.70;;
20140;SDS011;10231;47.702;9.826;2023-04-03T11:24:27;2.67;;;2.57;;
20140;SDS011;10231;47.702;9.826;2023-04-03T11:26:55;3.60;;;2.80;;
20140;SDS011;10231;47.702;9.826;2023-04-03T11:29:24;3.53;;;2.67;;
20140;SDS011;10231;47.702;9.826;2023-04-03T11:32:02;2.63;;;2.50;;
20140;SDS011;10231;47.702;9.826;2023-04-03T11:34:52;2.47;;;2.37;;
20140;SDS011;10231;47.702;9.826;2023-04-03T11:37:33;3.40;;;3.20;;
20140;SDS011;10231;47.702;9.826;2023-04-03T11:40:07;2.90;;;2.70;;
20140;SDS011;10231;47.702;9.826;2023-04-03T11:42:48;2.73;;;2.57;;
20140;SDS011;10231;47.702;9.826;2023-04-03T11:47:51;3.00;;;2.80;;
20140;SDS011;10231;47.702;9.826;2023-04-03T11:50:41;3.03;;;2.80;;
20140;SDS011;10231;47.702;9.826;2023-04-03T11:55:45;3.10;;;2.90;;
20140;SDS011;10231;47.702;9.826;2023-04-03T11:58:20;2.80;;;2.60;;
20140;SDS011;10231;47.702;9.826;2023-04-03T12:01:07;3.20;;;3.00;;
20140;SDS011;10231;47.702;9.826;2023-04-03T12:13:33;3.13;;;2.93;;
20140;SDS011;10231;47.702;9.826;2023-04-03T12:16:00;4.23;;;3.47;;
20140;SDS011;10231;47.702;9.826;2023-04-03T12:18:46;3.17;;;2.87;;
20140;SDS011;10231;47.702;9.826;2023-04-03T12:32:07;3.30;;;3.10;;
20140;SDS011;10231;47.702;9.826;2023-04-03T12:34:43;3.23;;;2.97;;
20140;SDS011;10231;47.702;9.826;2023-04-03T12:37:29;3.23;;;2.97;;
20140;SDS011;10231;47.702;9.826;2023-04-03T12:46:36;4.90;;;2.93;;
20140;SDS011;10231;47.702;9.826;2023-04-03T12:49:12;3.00;;;2.80;;
20140;SDS011;10231;47.702;9.826;2023-04-03T12:51:53;3.20;;;3.00;;
20140;SDS011;10231;47.702;9.826;2023-04-03T12:54:21;3.17;;;2.97;;
20140;SDS011;10231;47.702;9.826;2023-04-03T12:57:16;3.30;;;3.10;;
20140;SDS011;10231;47.702;9.826;2023-04-03T12:59:43;2.80;;;2.60;;
20140;SDS011;10231;47.702;9.826;2023-04-03T13:04:54;3.13;;;2.93;;
20140;SDS011;10231;47.702;9.826;2023-04-03T13:07:32;3.30;;;3.10;;
20140;SDS011;10231;47.702;9.826;2023-04-03T13:12:47;3.13;;;2.93;;
20140;SDS011;10231;47.702;9.826;2023-04-03T13:15:19;2.90;;;2.80;;
20140;SDS011;10231;47.702;9.826;2023-04-03T13:18:04;3.93;;;2.60;;
20140;SDS011;10231;47.702;9.826;2023-04-03T13:20:31;2.90;;;2.60;;
20140;SDS011;10231;47.702;9.826;2023-04-03T13:23:07;3.20;;;3.00;;
20140;SDS011;10231;47.702;9.826;2023-04-03T13:25:37;2.90;;;2.70;;
20140;SDS011;10231;47.702;9.826;2023-04-03T13:28:09;2.93;;;2.73;;
20140;SDS011;10231;47.702;9.826;2023-04-03T13:30:38;3.20;;;2.97;;
20140;SDS011;10231;47.702;9.826;2023-04-03T13:33:17;2.63;;;2.43;;
20140;SDS011;10231;47.702;9.826;2023-04-03T13:35:47;2.70;;;2.60;;
20140;SDS011;10231;47.702;9.826;2023-04-03T13:40:52;3.03;;;2.83;;
20140;SDS011;10231;47.702;9.826;2023-04-03T13:43:24;3.37;;;3.17;;
20140;SDS011;10231;47.702;9.826;2023-04-03T13:48:36;3.00;;;2.80;;
20140;SDS011;10231;47.702;9.826;2023-04-03T13:51:12;3.00;;;2.80;;
20140;SDS011;10231;47.702;9.826;2023-04-03T13:53:43;2.90;;;2.70;;
20140;SDS011;10231;47.702;9.826;2023-04-03T13:56:22;3.47;;;3.17;;
20140;SDS011;10231;47.702;9.826;2023-04-03T14:01:32;3.30;;;3.10;;
20140;SDS011;10231;47.702;9.826;2023-04-03T14:04:15;3.47;;;2.70;;
20140;SDS011;10231;47.702;9.826;2023-04-03T14:06:43;3.30;;;3.00;;
20140;SDS011;10231;47.702;9.826;2023-04-03T14:09:10;3.17;;;2.97;;
20140;SDS011;10231;47.702;9.826;2023-04-03T14:11:35;3.27;;;2.97;;
20140;SDS011;10231;47.702;9.826;2023-04-03T14:14:04;3.60;;;3.30;;
20140;SDS011;10231;47.702;9.826;2023-04-03T14:16:37;3.67;;;3.37;;
20140;SDS011;10231;47.702;9.826;2023-04-03T14:19:05;3.57;;;3.23;;
20140;SDS011;10231;47.702;9.826;2023-04-03T14:21:31;2.87;;;2.77;;
20140;SDS011;10231;47.702;9.826;2023-04-03T14:23:57;3.37;;;3.07;;
20140;SDS011;10231;47.702;9.826;2023-04-03T14:26:23;3.07;;;2.87;;
20140;SDS011;10231;47.702;9.826;2023-04-03T14:28:52;3.20;;;3.00;;
20140;SDS011;10231;47.702;9.826;2023-04-03T14:31:19;3.57;;;3.27;;
20140;SDS011;10231;47.702;9.826;2023-04-03T14:33:45;3.10;;;2.90;;
20140;SDS011;10231;47.702;9.826;2023-04-03T14:36:15;3.07;;;2.80;;
20140;SDS011;10231;47.702;9.826;2023-04-03T14:38:43;2.90;;;2.60;;
20140;SDS011;10231;47.702;9.826;2023-04-03T14:41:13;3.73;;;3.53;;
20140;SDS011;10231;47.702;9.826;2023-04-03T14:43:41;3.20;;;3.00;;
20140;SDS011;10231;47.702;9.826;2023-04-03T14:46:14;2.67;;;2.47;;
20140;SDS011;10231;47.702;9.826;2023-04-03T14:48:45;2.80;;;2.60;;
20140;SDS011;10231;47.702;9.826;2023-04-03T14:51:12;3.10;;;2.80;;
20140;SDS011;10231;47.702;9.826;2023-04-03T14:53:40;3.40;;;3.20;;
20140;SDS011;10231;47.702;9.826;2023-04-03T14:56:18;3.33;;;3.00;;
20140;SDS011;10231;47.702;9.826;2023-04-03T14:58:58;3.47;;;3.23;;
20140;SDS011;10231;47.702;9.826;2023-04-03T15:01:29;3.63;;;3.33;;
20140;SDS011;10231;47.702;9.826;2023-04-03T15:04:12;3.00;;;2.80;;
20140;SDS011;10231;47.702;9.826;2023-04-03T15:06:44;2.90;;;2.70;;
20140;SDS011;10231;47.702;9.826;2023-04-03T15:09:29;3.20;;;2.90;;
20140;SDS011;10231;47.702;9.826;2023-04-03T15:11:59;3.50;;;3.30;;
20140;SDS011;10231;47.702;9.826;2023-04-03T15:14:25;3.63;;;3.43;;
20140;SDS011;10231;47.702;9.826;2023-04-03T15:16:54;3.20;;;3.00;;
20140;SDS011;10231;47.702;9.826;2023-04-03T15:19:23;3.27;;;3.07;;
20140;SDS011;10231;47.702;9.826;2023-04-03T15:21:58;5.40;;;3.43;;
20140;SDS011;10231;47.702;9.826;2023-04-03T15:24:24;3.20;;;3.00;;
20140;SDS011;10231;47.702;9.826;2023-04-03T15:26:51;3.67;;;3.37;;
20140;SDS011;10231;47.702;9.826;2023-04-03T15:29:17;8.73;;;3.70;;
20140;SDS011;10231;47.702;9.826;2023-04-03T15:31:43;4.77;;;3.30;;
20140;SDS011;10231;47.702;9.826;2023-04-03T15:34:14;5.00;;;3.57;;
20140;SDS011;10231;47.702;9.826;2023-04-03T15:36:50;3.27;;;2.90;;
20140;SDS011;10231;47.702;9.826;2023-04-03T15:39:22;3.07;;;2.87;;
20140;SDS011;10231;47.702;9.826;2023-04-03T15:41:53;3.20;;;2.90;;
20140;SDS011;10231;47.702;9.826;2023-04-03T15:44:25;3.10;;;2.90;;
20140;SDS011;10231;47.702;9.826;2023-04-03T15:46:55;3.70;;;3.30;;
20140;SDS011;10231;47.702;9.826;2023-04-03T15:49:22;2.90;;;2.80;;
20140;SDS011;10231;47.702;9.826;2023-04-03T15:51:54;3.10;;;2.90;;
20140;SDS011;10231;47.702;9.826;2023-04-03T15:54:20;3.40;;;3.20;;
20140;SDS011;10231;47.702;9.826;2023-04-03T15:56:49;4.37;;;3.27;;
20140;SDS011;10231;47.702;9.826;2023-04-03T15:59:18;3.10;;;2.90;;
20140;SDS011;10231;47.702;9.826;2023-04-03T16:01:45;3.70;;;3.40;;
20140;SDS011;10231;47.702;9.826;2023-04-03T16:04:17;4.00;;;3.70;;
20140;SDS011;10231;47.702;9.826;2023-04-03T16:06:51;3.50;;;3.20;;
20140;SDS011;10231;47.702;9.826;2023-04-03T16:09:23;4.53;;;3.10;;
20140;SDS011;10231;47.702;9.826;2023-04-03T16:11:53;4.20;;;3.50;;
20140;SDS011;10231;47.702;9.826;2023-04-03T16:14:22;3.40;;;3.10;;
20140;SDS011;10231;47.702;9.826;2023-04-03T16:16:52;3.97;;;3.57;;
20140;SDS011;10231;47.702;9.826;2023-04-03T16:19:24;4.77;;;3.73;;
20140;SDS011;10231;47.702;9.826;2023-04-03T16:21:53;4.40;;;4.00;;
20140;SDS011;10231;47.702;9.826;2023-04-03T16:24:21;4.60;;;4.20;;
20140;SDS011;10231;47.702;9.826;2023-04-03T16:26:48;4.17;;;3.60;;
20140;SDS011;10231;47.702;9.826;2023-04-03T16:29:18;4.97;;;4.33;;
20140;SDS011;10231;47.702;9.826;2023-04-03T16:31:51;4.27;;;3.97;;
20140;SDS011;10231;47.702;9.826;2023-04-03T16:34:21;3.63;;;3.33;;
20140;SDS011;10231;47.702;9.826;2023-04-03T16:36:52;4.10;;;3.70;;
20140;SDS011;10231;47.702;9.826;2023-04-03T16:39:20;4.03;;;3.73;;
20140;SDS011;10231;47.702;9.826;2023-04-03T16:41:49;5.77;;;4.00;;